Time;durP1;ratioP1;P1;durP2;ratioP2;P2;SDS_P1;SDS_P2;PMS_P1;PMS_P2;Temp;Humidity;BMP_temperature;BMP_pressure;BME280_temperature;BME280_humidity;BME280_pressure;Samples;Min_cycle;Max_cycle;Signal;HPM_P1;HPM_P2
2022/09/07 00:00:18;;;;;;;2.42;1.70;;;;;;;;;;6253614;28;20613;-84
2022/09/07 00:03:21;;;;;;;3.25;2.17;;;;;;;;;;6246170;28;20044;-82
2022/09/07 00:06:23;;;;;;;3.13;2.05;;;;;;;;;;6243765;28;20522;-78
2022/09/07 00:09:24;;;;;;;2.95;1.80;;;;;;;;;;6242861;28;20187;-81
2022/09/07 00:12:26;;;;;;;2.42;2.10;;;;;;;;;;6230638;28;20124;-81
2022/09/07 00:15:28;;;;;;;2.85;1.95;;;;;;;;;;6242531;28;20111;-81
2022/09/07 00:18:30;;;;;;;2.88;2.08;;;;;;;;;;6258832;28;20041;-78
2022/09/07 00:21:32;;;;;;;3.63;2.13;;;;;;;;;;6287652;28;20052;-78
2022/09/07 00:24:33;;;;;;;3.10;2.05;;;;;;;;;;6291040;28;20079;-79
2022/09/07 00:27:35;;;;;;;3.53;2.00;;;;;;;;;;6289945;28;20086;-80
2022/09/07 00:30:41;;;;;;;2.58;1.80;;;;;;;;;;6276621;28;20110;-78
2022/09/07 00:33:44;;;;;;;3.13;2.00;;;;;;;;;;6270984;28;20052;-81
2022/09/07 00:36:45;;;;;;;3.20;1.88;;;;;;;;;;6284703;28;20111;-80
2022/09/07 00:39:48;;;;;;;2.55;1.92;;;;;;;;;;6264082;28;20411;-77
2022/09/07 00:42:50;;;;;;;3.17;2.10;;;;;;;;;;6264899;28;20049;-81
2022/09/07 00:45:51;;;;;;;3.30;2.15;;;;;;;;;;6265748;28;20075;-79
2022/09/07 00:49:17;;;;;;;2.97;2.17;;;;;;;;;;6266200;28;20075;-79
2022/09/07 00:52:20;;;;;;;9.15;2.90;;;;;;;;;;6246833;28;20049;-80
2022/09/07 00:55:22;;;;;;;3.00;1.80;;;;;;;;;;6264685;28;20079;-80
2022/09/07 00:58:25;;;;;;;2.93;1.90;;;;;;;;;;6247478;28;20130;-79
2022/09/07 01:01:27;;;;;;;2.10;1.90;;;;;;;;;;6265933;28;20059;-79
2022/09/07 01:04:30;;;;;;;3.25;2.17;;;;;;;;;;6264959;28;20049;-80
2022/09/07 01:07:32;;;;;;;2.90;1.83;;;;;;;;;;6264295;28;20048;-81
2022/09/07 01:10:34;;;;;;;4.05;1.95;;;;;;;;;;6286759;28;20499;-80
2022/09/07 01:13:39;;;;;;;2.22;1.85;;;;;;;;;;6265479;28;20078;-80
2022/09/07 01:17:00;;;;;;;3.45;2.35;;;;;;;;;;6264704;28;20112;-78
2022/09/07 01:20:26;;;;;;;2.67;2.47;;;;;;;;;;6263538;28;20072;-78
2022/09/07 01:24:08;;;;;;;2.65;2.22;;;;;;;;;;6245075;28;20110;-78
2022/09/07 01:27:46;;;;;;;3.53;1.83;;;;;;;;;;6262133;28;20053;-78
2022/09/07 01:30:57;;;;;;;3.10;1.80;;;;;;;;;;6262345;28;20060;-80
2022/09/07 01:34:22;;;;;;;2.67;1.77;;;;;;;;;;6279466;28;20510;-78
2022/09/07 01:37:45;;;;;;;2.40;1.80;;;;;;;;;;6284351;28;20052;-78
2022/09/07 01:41:00;;;;;;;6.90;3.55;;;;;;;;;;6292209;28;20060;-80
2022/09/07 01:44:23;;;;;;;7.28;2.92;;;;;;;;;;6294353;28;20448;-80
2022/09/07 01:47:32;;;;;;;6.63;2.40;;;;;;;;;;6294005;28;20044;-77
2022/09/07 01:50:45;;;;;;;6.22;2.60;;;;;;;;;;6294460;28;20104;-80
2022/09/07 01:53:56;;;;;;;4.60;2.15;;;;;;;;;;6294277;28;20060;-79
2022/09/07 01:57:07;;;;;;;3.45;2.30;;;;;;;;;;6290275;28;20127;-77
2022/09/07 02:00:15;;;;;;;2.90;1.98;;;;;;;;;;6285057;28;20068;-79
2022/09/07 02:03:22;;;;;;;5.85;2.60;;;;;;;;;;6281796;28;20121;-79
2022/09/07 02:06:36;;;;;;;6.90;2.28;;;;;;;;;;6283805;28;20448;-80
2022/09/07 02:09:50;;;;;;;3.55;2.33;;;;;;;;;;6284701;28;20055;-77
2022/09/07 02:12:54;;;;;;;3.50;2.10;;;;;;;;;;6290006;28;20036;-77
2022/09/07 02:16:07;;;;;;;6.88;2.40;;;;;;;;;;6279595;28;20087;-80
2022/09/07 02:19:15;;;;;;;4.10;2.33;;;;;;;;;;6274108;28;20052;-78
2022/09/07 02:22:23;;;;;;;3.50;2.45;;;;;;;;;;6285211;28;20416;-77
2022/09/07 02:25:33;;;;;;;3.80;2.28;;;;;;;;;;6286549;28;20118;-80
2022/09/07 02:28:37;;;;;;;4.13;2.40;;;;;;;;;;6262519;28;20562;-78
2022/09/07 02:31:39;;;;;;;4.45;2.40;;;;;;;;;;6261589;28;20049;-78
2022/09/07 02:34:41;;;;;;;4.23;2.77;;;;;;;;;;6260293;28;20041;-78
2022/09/07 02:37:44;;;;;;;2.90;2.60;;;;;;;;;;6240537;28;20095;-78
2022/09/07 02:40:51;;;;;;;3.25;2.50;;;;;;;;;;6284263;28;20041;-80
2022/09/07 02:43:52;;;;;;;4.93;2.50;;;;;;;;;;6285304;28;20044;-78
2022/09/07 02:47:40;;;;;;;5.63;2.35;;;;;;;;;;6294844;28;20068;-78
2022/09/07 02:51:14;;;;;;;3.55;2.40;;;;;;;;;;6283169;28;20056;-80
2022/09/07 02:54:37;;;;;;;3.90;2.30;;;;;;;;;;6262344;28;20045;-79
2022/09/07 02:57:38;;;;;;;3.22;2.60;;;;;;;;;;6276080;28;20036;-79
2022/09/07 03:01:08;;;;;;;3.55;2.53;;;;;;;;;;6289399;28;20052;-80
2022/09/07 03:04:28;;;;;;;5.22;2.60;;;;;;;;;;6280662;28;20073;-78
2022/09/07 03:08:17;;;;;;;7.55;3.08;;;;;;;;;;6283557;28;20036;-78
2022/09/07 03:11:18;;;;;;;5.32;3.10;;;;;;;;;;6258271;28;20549;-78
2022/09/07 03:14:22;;;;;;;5.60;2.65;;;;;;;;;;6259143;28;20041;-80
2022/09/07 03:17:24;;;;;;;5.07;3.03;;;;;;;;;;6263641;28;20411;-77
2022/09/07 03:20:26;;;;;;;4.78;2.83;;;;;;;;;;6260883;28;20115;-79
2022/09/07 03:23:27;;;;;;;4.97;2.95;;;;;;;;;;6258625;28;20049;-81
2022/09/07 03:26:29;;;;;;;6.15;2.50;;;;;;;;;;6267064;28;20081;-78
2022/09/07 03:29:31;;;;;;;5.55;2.80;;;;;;;;;;6267380;28;20064;-78
2022/09/07 03:32:34;;;;;;;4.40;2.97;;;;;;;;;;6262344;28;20071;-80
2022/09/07 03:35:36;;;;;;;5.93;2.92;;;;;;;;;;6268123;28;20053;-81
2022/09/07 03:38:38;;;;;;;5.07;2.95;;;;;;;;;;6292063;28;20048;-80
2022/09/07 03:41:39;;;;;;;4.70;2.80;;;;;;;;;;6289102;28;20110;-77
2022/09/07 03:44:41;;;;;;;3.80;2.85;;;;;;;;;;6294822;28;20040;-81
2022/09/07 03:47:43;;;;;;;4.57;2.50;;;;;;;;;;6287263;28;20044;-79
2022/09/07 03:50:54;;;;;;;3.22;2.80;;;;;;;;;;6265171;28;20060;-79
2022/09/07 03:53:56;;;;;;;4.78;2.90;;;;;;;;;;6287349;28;20503;-81
2022/09/07 03:56:57;;;;;;;4.20;2.70;;;;;;;;;;6279542;28;20064;-81
2022/09/07 03:59:59;;;;;;;5.60;2.20;;;;;;;;;;6290230;28;20125;-80
2022/09/07 04:03:01;;;;;;;3.70;2.50;;;;;;;;;;6291601;28;20056;-78
2022/09/07 04:06:03;;;;;;;3.88;2.67;;;;;;;;;;6289316;28;20074;-81
2022/09/07 04:09:07;;;;;;;4.32;3.60;;;;;;;;;;6292322;28;20059;-77
2022/09/07 04:12:09;;;;;;;3.60;3.22;;;;;;;;;;6289419;28;20074;-80
2022/09/07 04:15:10;;;;;;;4.82;3.45;;;;;;;;;;6291301;28;20056;-78
2022/09/07 04:18:12;;;;;;;4.97;3.53;;;;;;;;;;6283296;28;20098;-77
2022/09/07 04:21:14;;;;;;;6.30;3.88;;;;;;;;;;6287935;28;20044;-78
2022/09/07 04:24:16;;;;;;;5.05;3.78;;;;;;;;;;6284074;28;20056;-78
2022/09/07 04:27:18;;;;;;;5.88;3.92;;;;;;;;;;6283078;28;20052;-79
2022/09/07 04:30:19;;;;;;;6.80;4.15;;;;;;;;;;6282769;28;20526;-77
2022/09/07 04:33:21;;;;;;;5.97;3.97;;;;;;;;;;6269374;28;20160;-77
2022/09/07 04:36:26;;;;;;;5.30;3.53;;;;;;;;;;6277720;28;20527;-75
2022/09/07 04:39:27;;;;;;;4.68;3.55;;;;;;;;;;6270111;28;20173;-77
2022/09/07 04:42:29;;;;;;;6.47;3.70;;;;;;;;;;6271648;28;20036;-76
2022/09/07 04:45:31;;;;;;;6.63;4.28;;;;;;;;;;6274447;28;20427;-79
2022/09/07 04:48:33;;;;;;;5.93;3.70;;;;;;;;;;6276886;28;20065;-78
2022/09/07 04:51:36;;;;;;;9.02;4.32;;;;;;;;;;6274535;28;20122;-78
2022/09/07 04:54:38;;;;;;;7.25;4.50;;;;;;;;;;6276441;28;20091;-79
2022/09/07 04:57:39;;;;;;;6.63;4.97;;;;;;;;;;6281586;28;20048;-79
2022/09/07 05:00:41;;;;;;;7.75;4.32;;;;;;;;;;6271750;28;20044;-78
2022/09/07 05:03:44;;;;;;;5.18;3.92;;;;;;;;;;6280647;28;20144;-78
2022/09/07 05:06:45;;;;;;;6.97;4.80;;;;;;;;;;6272405;28;20044;-78
2022/09/07 05:09:47;;;;;;;7.25;4.03;;;;;;;;;;6277125;28;20255;-79
2022/09/07 05:12:48;;;;;;;5.15;4.10;;;;;;;;;;6270902;28;20098;-78
2022/09/07 05:15:50;;;;;;;4.78;4.03;;;;;;;;;;6274208;28;20135;-77
2022/09/07 05:18:55;;;;;;;6.75;4.10;;;;;;;;;;6277892;28;20199;-79
2022/09/07 05:21:57;;;;;;;6.70;4.38;;;;;;;;;;6278729;28;20082;-78
2022/09/07 05:24:59;;;;;;;7.18;4.57;;;;;;;;;;6275279;28;20086;-79
2022/09/07 05:28:01;;;;;;;6.18;4.78;;;;;;;;;;6278820;28;20060;-78
2022/09/07 05:31:04;;;;;;;7.45;4.78;;;;;;;;;;6283450;28;20152;-78
2022/09/07 05:34:22;;;;;;;4.68;3.70;;;;;;;;;;6276597;28;20047;-79
2022/09/07 05:37:32;;;;;;;5.30;4.43;;;;;;;;;;6280249;28;20048;-79
2022/09/07 05:40:33;;;;;;;5.32;4.35;;;;;;;;;;6278428;28;20502;-78
2022/09/07 05:43:41;;;;;;;6.32;4.43;;;;;;;;;;6284407;28;20040;-79
2022/09/07 05:47:03;;;;;;;7.00;4.22;;;;;;;;;;6280466;28;20052;-79
2022/09/07 05:50:06;;;;;;;6.07;4.22;;;;;;;;;;6282478;28;20178;-79
2022/09/07 05:53:08;;;;;;;6.15;4.82;;;;;;;;;;6283534;28;20459;-79
2022/09/07 05:56:10;;;;;;;6.97;4.45;;;;;;;;;;6279706;28;20104;-79
2022/09/07 05:59:12;;;;;;;7.78;5.45;;;;;;;;;;6284390;28;20106;-79
2022/09/07 06:02:14;;;;;;;8.88;5.10;;;;;;;;;;6286298;28;20040;-80
2022/09/07 06:05:16;;;;;;;6.93;5.07;;;;;;;;;;6286423;28;20044;-78
2022/09/07 06:08:18;;;;;;;7.32;5.80;;;;;;;;;;6279727;28;20040;-78
2022/09/07 06:11:22;;;;;;;7.95;5.78;;;;;;;;;;6272773;28;20049;-79
2022/09/07 06:14:23;;;;;;;9.20;6.07;;;;;;;;;;6277544;28;20056;-77
2022/09/07 06:17:25;;;;;;;11.63;7.10;;;;;;;;;;6275017;28;20519;-79
2022/09/07 06:20:27;;;;;;;10.05;6.75;;;;;;;;;;6279352;28;20051;-80
2022/09/07 06:23:32;;;;;;;10.40;7.43;;;;;;;;;;6286389;28;20127;-79
2022/09/07 06:26:33;;;;;;;11.55;7.25;;;;;;;;;;6275161;28;20528;-78
2022/09/07 06:29:35;;;;;;;8.95;6.25;;;;;;;;;;6282217;28;20479;-78
2022/09/07 06:32:37;;;;;;;12.27;6.90;;;;;;;;;;6285622;28;20045;-78
2022/09/07 06:36:00;;;;;;;7.75;6.10;;;;;;;;;;6283430;28;20719;-79
2022/09/07 06:39:02;;;;;;;9.82;7.10;;;;;;;;;;6282859;28;20703;-79
2022/09/07 06:42:04;;;;;;;8.57;5.87;;;;;;;;;;6275227;28;20052;-78
2022/09/07 06:45:06;;;;;;;8.65;6.45;;;;;;;;;;6286233;28;20732;-78
2022/09/07 06:48:08;;;;;;;7.03;6.27;;;;;;;;;;6276071;28;20090;-78
2022/09/07 06:51:17;;;;;;;10.00;6.20;;;;;;;;;;6280027;28;20206;-78
2022/09/07 06:54:19;;;;;;;8.25;5.63;;;;;;;;;;6277169;28;20041;-77
2022/09/07 06:57:41;;;;;;;10.13;5.57;;;;;;;;;;6274881;28;20120;-77
2022/09/07 07:00:42;;;;;;;9.18;5.32;;;;;;;;;;6285590;28;20045;-77
2022/09/07 07:03:45;;;;;;;8.27;5.32;;;;;;;;;;6270846;28;20040;-76
2022/09/07 07:06:46;;;;;;;5.78;3.97;;;;;;;;;;6288360;28;20041;-77
2022/09/07 07:09:48;;;;;;;5.80;4.10;;;;;;;;;;6277764;28;20514;-77
2022/09/07 07:12:55;;;;;;;5.17;4.07;;;;;;;;;;6279604;28;20064;-77
2022/09/07 07:16:09;;;;;;;5.80;3.65;;;;;;;;;;6276880;28;20051;-76
2022/09/07 07:19:10;;;;;;;;;;;;;;;;;;6284029;28;20041;-77
2022/09/07 07:22:12;;;;;;;4.50;3.70;;;;;;;;;;6281210;28;19928;-77
2022/09/07 07:25:34;;;;;;;6.07;3.97;;;;;;;;;;6277061;28;20147;-76
2022/09/07 07:28:36;;;;;;;5.33;4.00;;;;;;;;;;6275694;28;20075;-76
2022/09/07 07:31:58;;;;;;;4.55;4.10;;;;;;;;;;6279695;28;20641;-79
2022/09/07 07:35:00;;;;;;;4.05;3.65;;;;;;;;;;6283562;28;20052;-77
2022/09/07 07:38:02;;;;;;;5.13;3.67;;;;;;;;;;6283580;28;20285;-77
2022/09/07 07:41:30;;;;;;;5.03;3.55;;;;;;;;;;6287372;28;20060;-77
2022/09/07 07:44:51;;;;;;;4.55;3.35;;;;;;;;;;6271548;28;20118;-76
2022/09/07 07:48:13;;;;;;;4.28;3.10;;;;;;;;;;6276421;28;20049;-75
2022/09/07 07:51:15;;;;;;;4.00;3.08;;;;;;;;;;6280906;28;20032;-75
2022/09/07 07:54:20;;;;;;;4.00;3.60;;;;;;;;;;6267913;28;20106;-77
2022/09/07 07:57:24;;;;;;;4.90;3.45;;;;;;;;;;6251415;28;20045;-78
2022/09/07 08:00:25;;;;;;;5.45;3.67;;;;;;;;;;6280119;28;20048;-79
2022/09/07 08:03:48;;;;;;;4.82;3.50;;;;;;;;;;6268100;28;20641;-79
2022/09/07 08:06:51;;;;;;;5.45;3.00;;;;;;;;;;6248515;28;20486;-76
2022/09/07 08:09:52;;;;;;;3.22;2.88;;;;;;;;;;6248006;28;20922;-78
2022/09/07 08:12:55;;;;;;;3.95;2.88;;;;;;;;;;6238201;28;20463;-78
2022/09/07 08:16:02;;;;;;;5.45;2.70;;;;;;;;;;6181168;28;20051;-78
2022/09/07 08:19:04;;;;;;;2.53;2.13;;;;;;;;;;6242319;28;20088;-77
2022/09/07 08:22:10;;;;;;;2.55;2.35;;;;;;;;;;6218117;28;20114;-79
2022/09/07 08:25:12;;;;;;;3.20;2.50;;;;;;;;;;6244618;28;20059;-78
2022/09/07 08:28:22;;;;;;;5.38;2.45;;;;;;;;;;6269557;28;20045;-78
2022/09/07 08:31:24;;;;;;;3.40;2.40;;;;;;;;;;6276649;28;20729;-75
2022/09/07 08:34:30;;;;;;;3.72;3.00;;;;;;;;;;6274364;28;20048;-76
2022/09/07 08:37:32;;;;;;;4.53;2.78;;;;;;;;;;6274988;28;20041;-76
2022/09/07 08:40:36;;;;;;;3.07;2.20;;;;;;;;;;6277922;28;20041;-79
2022/09/07 08:44:05;;;;;;;3.13;2.42;;;;;;;;;;6274592;28;20052;-77
2022/09/07 08:47:20;;;;;;;3.38;2.85;;;;;;;;;;6275988;28;20059;-77
2022/09/07 08:50:44;;;;;;;3.30;2.55;;;;;;;;;;6285875;28;20538;-78
2022/09/07 08:53:47;;;;;;;3.75;2.60;;;;;;;;;;6255602;28;20046;-77
2022/09/07 08:56:52;;;;;;;5.50;2.40;;;;;;;;;;6262584;28;20049;-79
2022/09/07 09:00:16;;;;;;;3.67;2.75;;;;;;;;;;6275767;28;20056;-76
2022/09/07 09:03:26;;;;;;;3.70;2.60;;;;;;;;;;6275624;28;20118;-77
2022/09/07 09:06:39;;;;;;;4.57;2.50;;;;;;;;;;6278648;28;20052;-76
2022/09/07 09:09:44;;;;;;;3.72;2.70;;;;;;;;;;6284934;28;20048;-79
2022/09/07 09:13:08;;;;;;;4.07;2.30;;;;;;;;;;6274215;28;20051;-78
2022/09/07 09:16:20;;;;;;;2.67;2.22;;;;;;;;;;6289430;28;20052;-79
2022/09/07 09:19:31;;;;;;;2.80;2.10;;;;;;;;;;6262686;28;20070;-77
2022/09/07 09:22:34;;;;;;;2.65;2.30;;;;;;;;;;6283736;28;20108;-78
2022/09/07 09:25:37;;;;;;;5.80;2.17;;;;;;;;;;6285325;28;20100;-77
2022/09/07 09:28:39;;;;;;;5.78;2.70;;;;;;;;;;6287396;28;20139;-78
2022/09/07 09:31:40;;;;;;;3.37;2.20;;;;;;;;;;6281185;28;20044;-78
2022/09/07 09:35:03;;;;;;;3.65;2.20;;;;;;;;;;6285920;28;20047;-75
2022/09/07 09:38:30;;;;;;;5.70;2.70;;;;;;;;;;6278132;28;20048;-78
2022/09/07 09:41:36;;;;;;;4.55;2.40;;;;;;;;;;6282702;28;20090;-77
2022/09/07 09:44:38;;;;;;;2.40;2.20;;;;;;;;;;6285846;28;20041;-78
2022/09/07 09:47:40;;;;;;;3.35;2.35;;;;;;;;;;6280496;28;20045;-79
2022/09/07 09:50:48;;;;;;;3.53;2.30;;;;;;;;;;6279575;28;20064;-78
2022/09/07 09:54:31;;;;;;;4.30;2.30;;;;;;;;;;6281398;28;20041;-78
2022/09/07 09:57:57;;;;;;;3.65;2.10;;;;;;;;;;6278335;28;20052;-79
2022/09/07 10:01:33;;;;;;;3.85;2.05;;;;;;;;;;6284860;28;20048;-76
2022/09/07 10:04:36;;;;;;;4.38;2.10;;;;;;;;;;6280028;28;20417;-78
2022/09/07 10:07:38;;;;;;;2.67;2.45;;;;;;;;;;6286831;28;20040;-76
2022/09/07 10:11:11;;;;;;;2.97;2.03;;;;;;;;;;6286865;28;20111;-78
2022/09/07 10:14:21;;;;;;;1.95;1.85;;;;;;;;;;6288377;28;20052;-77
2022/09/07 10:17:34;;;;;;;3.60;2.15;;;;;;;;;;6286499;28;20047;-76
2022/09/07 10:20:37;;;;;;;3.63;1.90;;;;;;;;;;6282604;28;20174;-78
2022/09/07 10:23:38;;;;;;;;;;;;;;;;;;6282095;28;20507;-78
2022/09/07 10:26:43;;;;;;;2.60;1.90;;;;;;;;;;6290582;28;19999;-78
2022/09/07 10:29:45;;;;;;;2.22;1.80;;;;;;;;;;6289706;28;20119;-76
2022/09/07 10:33:19;;;;;;;3.55;1.80;;;;;;;;;;6281270;28;20063;-79
2022/09/07 10:36:51;;;;;;;3.75;1.83;;;;;;;;;;6270623;28;20044;-79
2022/09/07 10:40:05;;;;;;;2.70;1.58;;;;;;;;;;6271813;28;20072;-78
2022/09/07 10:43:15;;;;;;;3.00;1.60;;;;;;;;;;6282023;28;20053;-79
2022/09/07 10:46:48;;;;;;;4.32;1.85;;;;;;;;;;6281104;28;20182;-78
2022/09/07 10:50:07;;;;;;;2.13;1.50;;;;;;;;;;6283466;28;20392;-79
2022/09/07 10:53:44;;;;;;;2.30;1.75;;;;;;;;;;6286090;28;20061;-78
2022/09/07 10:57:03;;;;;;;3.30;1.63;;;;;;;;;;6284981;28;20049;-79
2022/09/07 11:00:10;;;;;;;2.95;1.67;;;;;;;;;;6280712;28;20047;-79
2022/09/07 11:03:31;;;;;;;3.13;1.73;;;;;;;;;;6286555;28;20048;-78
2022/09/07 11:06:41;;;;;;;2.20;1.70;;;;;;;;;;6264791;28;20067;-79
2022/09/07 11:09:58;;;;;;;2.75;2.00;;;;;;;;;;6272770;28;20048;-78
2022/09/07 11:13:04;;;;;;;3.30;1.60;;;;;;;;;;6263650;28;20090;-77
2022/09/07 11:16:13;;;;;;;2.10;1.38;;;;;;;;;;6266797;28;20049;-79
2022/09/07 11:19:53;;;;;;;1.33;1.10;;;;;;;;;;6266194;28;20182;-77
2022/09/07 11:23:33;;;;;;;2.42;1.27;;;;;;;;;;6263787;28;20419;-80
2022/09/07 11:26:49;;;;;;;4.05;1.58;;;;;;;;;;6264638;28;20051;-78
2022/09/07 11:30:03;;;;;;;1.83;1.40;;;;;;;;;;6259841;28;20060;-77
2022/09/07 11:33:22;;;;;;;2.65;1.30;;;;;;;;;;6243200;28;20432;-79
2022/09/07 11:36:27;;;;;;;1.95;1.33;;;;;;;;;;6291843;28;20151;-80
2022/09/07 11:39:34;;;;;;;2.35;1.42;;;;;;;;;;6283715;28;20090;-79
2022/09/07 11:42:51;;;;;;;2.55;1.40;;;;;;;;;;6293730;28;20049;-79
2022/09/07 11:45:59;;;;;;;2.97;1.60;;;;;;;;;;6294369;28;20041;-80
2022/09/07 11:49:04;;;;;;;1.40;1.30;;;;;;;;;;6292665;28;20048;-78
2022/09/07 11:52:18;;;;;;;2.50;1.30;;;;;;;;;;6288136;28;20067;-78
2022/09/07 11:55:27;;;;;;;2.22;1.15;;;;;;;;;;6278299;28;20528;-79
2022/09/07 11:58:50;;;;;;;1.30;1.20;;;;;;;;;;6284852;28;20044;-79
2022/09/07 12:02:22;;;;;;;1.60;1.20;;;;;;;;;;6295458;28;20048;-79
2022/09/07 12:06:00;;;;;;;0.85;0.85;;;;;;;;;;6280527;28;20043;-79
2022/09/07 12:09:20;;;;;;;1.60;1.20;;;;;;;;;;6280178;28;20047;-79
2022/09/07 12:13:04;;;;;;;2.10;0.90;;;;;;;;;;6303016;28;20151;-79
2022/09/07 12:16:11;;;;;;;1.35;1.20;;;;;;;;;;6281932;28;20108;-77
2022/09/07 12:19:20;;;;;;;2.08;1.17;;;;;;;;;;6290611;28;20040;-79
2022/09/07 12:22:21;;;;;;;6.85;1.50;;;;;;;;;;6292964;28;20107;-79
2022/09/07 12:25:24;;;;;;;1.73;1.40;;;;;;;;;;6292355;28;20041;-79
2022/09/07 12:28:35;;;;;;;1.70;1.40;;;;;;;;;;6280412;28;20479;-80
2022/09/07 12:31:47;;;;;;;3.72;1.30;;;;;;;;;;6289352;28;20036;-79
2022/09/07 12:35:27;;;;;;;4.50;1.27;;;;;;;;;;6287296;28;20511;-80
2022/09/07 12:38:32;;;;;;;2.95;1.58;;;;;;;;;;6292406;28;20447;-77
2022/09/07 12:41:45;;;;;;;2.28;1.20;;;;;;;;;;6291056;28;20102;-79
2022/09/07 12:45:26;;;;;;;2.03;1.20;;;;;;;;;;6284816;28;20734;-79
2022/09/07 12:48:42;;;;;;;2.55;1.13;;;;;;;;;;6291768;28;20104;-79
2022/09/07 12:51:59;;;;;;;1.50;1.40;;;;;;;;;;6291430;28;20708;-79
2022/09/07 12:55:28;;;;;;;2.00;1.40;;;;;;;;;;6290367;28;20040;-79
2022/09/07 12:58:49;;;;;;;2.00;1.30;;;;;;;;;;6290383;28;20052;-79
2022/09/07 13:02:15;;;;;;;3.15;1.00;;;;;;;;;;6266003;28;20048;-78
2022/09/07 13:05:39;;;;;;;2.15;1.40;;;;;;;;;;6285580;28;20036;-78
2022/09/07 13:08:53;;;;;;;1.48;1.15;;;;;;;;;;6283026;28;20044;-79
2022/09/07 13:11:54;;;;;;;1.88;1.25;;;;;;;;;;6265761;28;20139;-79
2022/09/07 13:14:58;;;;;;;1.33;0.90;;;;;;;;;;6287789;28;20044;-79
2022/09/07 13:17:59;;;;;;;0.85;0.80;;;;;;;;;;6270831;28;20161;-80
2022/09/07 13:21:07;;;;;;;1.30;0.68;;;;;;;;;;6282576;28;20040;-79
2022/09/07 13:24:17;;;;;;;2.10;0.75;;;;;;;;;;6265257;28;20052;-78
2022/09/07 13:27:53;;;;;;;0.88;0.65;;;;;;;;;;6265037;28;20427;-79
2022/09/07 13:30:58;;;;;;;1.25;0.90;;;;;;;;;;6280045;28;20135;-78
2022/09/07 13:34:32;;;;;;;2.38;1.00;;;;;;;;;;6291232;28;20112;-80
2022/09/07 13:37:44;;;;;;;2.60;0.90;;;;;;;;;;6290365;28;20048;-80
2022/09/07 13:40:47;;;;;;;0.80;0.80;;;;;;;;;;6274773;28;20037;-79
2022/09/07 13:43:56;;;;;;;2.17;1.10;;;;;;;;;;6272938;28;20055;-79
2022/09/07 13:47:39;;;;;;;1.67;1.10;;;;;;;;;;6267503;28;20136;-76
2022/09/07 13:51:00;;;;;;;2.88;1.00;;;;;;;;;;6273892;28;20041;-79
2022/09/07 13:54:14;;;;;;;1.05;0.95;;;;;;;;;;6290638;28;20040;-76
2022/09/07 13:57:46;;;;;;;1.60;1.20;;;;;;;;;;6290308;28;20051;-79
2022/09/07 14:01:16;;;;;;;1.27;1.17;;;;;;;;;;6304853;28;20194;-78
2022/09/07 14:04:36;;;;;;;1.30;1.20;;;;;;;;;;6276843;28;20052;-78
2022/09/07 14:07:44;;;;;;;1.33;1.17;;;;;;;;;;6279430;28;20046;-78
2022/09/07 14:10:48;;;;;;;1.38;1.20;;;;;;;;;;6287026;28;20518;-77
2022/09/07 14:14:19;;;;;;;1.95;1.10;;;;;;;;;;6273437;28;20051;-77
2022/09/07 14:17:21;;;;;;;2.50;1.50;;;;;;;;;;6287364;28;20041;-78
2022/09/07 14:20:23;;;;;;;2.42;1.40;;;;;;;;;;6270897;28;20495;-80
2022/09/07 14:23:29;;;;;;;2.30;1.60;;;;;;;;;;6264404;28;20491;-76
2022/09/07 14:26:31;;;;;;;2.25;1.40;;;;;;;;;;6256498;28;20076;-78
2022/09/07 14:29:35;;;;;;;1.48;1.30;;;;;;;;;;6259357;28;20037;-79
2022/09/07 14:32:36;;;;;;;1.75;1.65;;;;;;;;;;6246883;28;20052;-76
2022/09/07 14:35:40;;;;;;;2.25;1.40;;;;;;;;;;6264761;28;20685;-80
2022/09/07 14:38:42;;;;;;;3.38;1.33;;;;;;;;;;6262665;28;20043;-78
2022/09/07 14:42:05;;;;;;;2.15;1.60;;;;;;;;;;6260488;28;20067;-77
2022/09/07 14:45:35;;;;;;;2.10;1.40;;;;;;;;;;6255089;28;20041;-77
2022/09/07 14:48:38;;;;;;;1.92;1.70;;;;;;;;;;6263230;28;20045;-78
2022/09/07 14:51:43;;;;;;;1.85;1.40;;;;;;;;;;6268340;28;20052;-77
2022/09/07 14:54:50;;;;;;;3.10;1.55;;;;;;;;;;6247711;28;20045;-78
2022/09/07 14:58:13;;;;;;;2.92;1.50;;;;;;;;;;6254761;28;20588;-77
2022/09/07 15:01:18;;;;;;;2.08;1.50;;;;;;;;;;6243326;28;20048;-76
2022/09/07 15:04:40;;;;;;;3.35;1.45;;;;;;;;;;6260051;28;20053;-77
2022/09/07 15:07:53;;;;;;;2.13;1.60;;;;;;;;;;6266294;28;20526;-77
2022/09/07 15:11:03;;;;;;;1.70;1.20;;;;;;;;;;6250997;28;20049;-78
2022/09/07 15:14:24;;;;;;;3.45;1.33;;;;;;;;;;6285525;28;20040;-78
2022/09/07 15:17:31;;;;;;;1.90;1.40;;;;;;;;;;6285472;28;20048;-76
2022/09/07 15:20:49;;;;;;;2.00;1.10;;;;;;;;;;6281261;28;20470;-78
2022/09/07 15:23:51;;;;;;;;;;;;;;;;;;6281476;28;20147;-78
2022/09/07 15:26:53;;;;;;;1.40;1.30;;;;;;;;;;6286772;28;19920;-77
2022/09/07 15:30:10;;;;;;;3.55;1.30;;;;;;;;;;6277193;28;20456;-78
2022/09/07 15:33:12;;;;;;;1.55;1.05;;;;;;;;;;6274028;28;20044;-76
2022/09/07 15:36:15;;;;;;;2.67;1.07;;;;;;;;;;6287771;28;20055;-77
2022/09/07 15:39:20;;;;;;;3.03;1.20;;;;;;;;;;6276700;28;20052;-79
2022/09/07 15:42:22;;;;;;;1.65;1.25;;;;;;;;;;6272830;28;20514;-78
2022/09/07 15:45:46;;;;;;;1.70;1.08;;;;;;;;;;6280933;28;20549;-76
2022/09/07 15:48:50;;;;;;;1.27;1.10;;;;;;;;;;6272926;28;20052;-78
2022/09/07 15:51:52;;;;;;;1.30;1.20;;;;;;;;;;6282556;28;20067;-79
2022/09/07 15:55:10;;;;;;;1.63;1.10;;;;;;;;;;6277290;28;20454;-77
2022/09/07 15:58:12;;;;;;;1.50;1.10;;;;;;;;;;6283626;28;20143;-79
2022/09/07 16:01:13;;;;;;;2.00;1.10;;;;;;;;;;6282502;28;20143;-77
2022/09/07 16:04:35;;;;;;;1.13;1.02;;;;;;;;;;6289439;28;20052;-79
2022/09/07 16:07:40;;;;;;;2.33;1.15;;;;;;;;;;6281448;28;20040;-78
2022/09/07 16:11:17;;;;;;;1.38;1.23;;;;;;;;;;6276828;28;20049;-79
2022/09/07 16:14:20;;;;;;;2.03;1.10;;;;;;;;;;6265566;28;20041;-77
2022/09/07 16:17:21;;;;;;;1.83;1.30;;;;;;;;;;6258161;28;20124;-79
2022/09/07 16:20:37;;;;;;;2.72;1.27;;;;;;;;;;6258073;28;20546;-79
2022/09/07 16:23:41;;;;;;;2.15;1.05;;;;;;;;;;6279537;28;20040;-79
2022/09/07 16:26:42;;;;;;;1.10;1.00;;;;;;;;;;6287210;28;20059;-78
2022/09/07 16:29:44;;;;;;;2.50;1.33;;;;;;;;;;6287021;28;20546;-78
2022/09/07 16:32:46;;;;;;;1.83;1.10;;;;;;;;;;6279195;28;20033;-79
2022/09/07 16:35:58;;;;;;;1.88;1.10;;;;;;;;;;6286356;28;20049;-80
2022/09/07 16:39:00;;;;;;;2.37;1.10;;;;;;;;;;6291087;28;20125;-79
2022/09/07 16:42:02;;;;;;;1.55;1.10;;;;;;;;;;6285720;28;20071;-77
2022/09/07 16:45:04;;;;;;;1.33;1.20;;;;;;;;;;6292106;28;20118;-78
2022/09/07 16:48:26;;;;;;;1.27;1.00;;;;;;;;;;6295536;28;20119;-78
2022/09/07 16:51:28;;;;;;;1.07;0.97;;;;;;;;;;6294741;28;20439;-79
2022/09/07 16:54:29;;;;;;;2.87;1.07;;;;;;;;;;6293610;28;20048;-76
2022/09/07 16:57:33;;;;;;;3.08;1.00;;;;;;;;;;6290997;28;20041;-77
2022/09/07 17:00:54;;;;;;;2.15;0.98;;;;;;;;;;6288279;28;20041;-79
2022/09/07 17:03:56;;;;;;;1.57;0.90;;;;;;;;;;6292060;28;20044;-80
2022/09/07 17:06:58;;;;;;;2.67;0.90;;;;;;;;;;6290384;28;20059;-80
2022/09/07 17:10:00;;;;;;;3.00;0.80;;;;;;;;;;6292707;28;20127;-78
2022/09/07 17:13:02;;;;;;;1.58;0.80;;;;;;;;;;6244413;28;20177;-77
2022/09/07 17:16:18;;;;;;;2.67;0.80;;;;;;;;;;6265238;28;20086;-80
2022/09/07 17:19:21;;;;;;;1.10;0.55;;;;;;;;;;6236437;28;20096;-78
2022/09/07 17:22:40;;;;;;;1.02;0.50;;;;;;;;;;6251781;28;20178;-79
2022/09/07 17:25:45;;;;;;;1.00;0.65;;;;;;;;;;6260224;28;20566;-77
2022/09/07 17:28:49;;;;;;;1.05;0.55;;;;;;;;;;6276592;28;20051;-78
2022/09/07 17:31:51;;;;;;;0.93;0.50;;;;;;;;;;6280062;28;20068;-77
2022/09/07 17:35:12;;;;;;;2.20;0.60;;;;;;;;;;6284035;28;20054;-80
2022/09/07 17:38:14;;;;;;;2.90;0.60;;;;;;;;;;6279050;28;20037;-79
2022/09/07 17:41:36;;;;;;;1.23;0.75;;;;;;;;;;6292621;28;20064;-80
2022/09/07 17:44:37;;;;;;;0.82;0.60;;;;;;;;;;6255708;28;20500;-80
2022/09/07 17:47:39;;;;;;;2.70;0.70;;;;;;;;;;6261430;28;20056;-78
2022/09/07 17:50:41;;;;;;;1.02;0.70;;;;;;;;;;6275700;28;20055;-79
2022/09/07 17:53:44;;;;;;;0.90;0.80;;;;;;;;;;6281560;28;20048;-79
2022/09/07 17:56:46;;;;;;;2.25;0.77;;;;;;;;;;6287086;28;20102;-81
2022/09/07 17:59:48;;;;;;;1.98;0.73;;;;;;;;;;6263515;28;20052;-80
2022/09/07 18:03:13;;;;;;;0.70;0.57;;;;;;;;;;6278603;28;20043;-80
2022/09/07 18:06:15;;;;;;;1.40;0.77;;;;;;;;;;6257342;28;20071;-78
2022/09/07 18:09:18;;;;;;;1.02;0.95;;;;;;;;;;6283783;28;20055;-81
2022/09/07 18:12:21;;;;;;;3.42;1.00;;;;;;;;;;6286378;28;20040;-80
2022/09/07 18:15:25;;;;;;;1.15;0.88;;;;;;;;;;6290308;28;20055;-80
2022/09/07 18:18:27;;;;;;;1.10;0.73;;;;;;;;;;6288956;28;20093;-81
2022/09/07 18:21:30;;;;;;;;;;;;;;;;;;6274033;28;20047;-80
2022/09/07 18:24:32;;;;;;;1.35;0.52;;;;;;;;;;6291339;28;20023;-79
2022/09/07 18:27:38;;;;;;;1.13;0.68;;;;;;;;;;6285541;28;20048;-80
2022/09/07 18:30:41;;;;;;;3.38;0.70;;;;;;;;;;6291166;28;20079;-79
2022/09/07 18:33:43;;;;;;;0.88;0.80;;;;;;;;;;6287182;28;20064;-81
2022/09/07 18:36:45;;;;;;;2.08;1.00;;;;;;;;;;6292081;28;20045;-80
2022/09/07 18:39:47;;;;;;;1.20;0.93;;;;;;;;;;6282186;28;20044;-79
2022/09/07 18:42:49;;;;;;;2.42;0.90;;;;;;;;;;6279203;28;20049;-76
2022/09/07 18:45:58;;;;;;;1.65;0.88;;;;;;;;;;6260369;28;20416;-79
2022/09/07 18:49:00;;;;;;;1.67;0.63;;;;;;;;;;6281275;28;20052;-78
2022/09/07 18:52:03;;;;;;;1.15;0.88;;;;;;;;;;6276250;28;20048;-78
2022/09/07 18:55:26;;;;;;;2.25;0.90;;;;;;;;;;6272696;28;20071;-77